Time;durP1;ratioP1;P1;durP2;ratioP2;P2;SDS_P1;SDS_P2;PMS_P1;PMS_P2;Temp;Humidity;BMP_temperature;BMP_pressure;BME280_temperature;BME280_humidity;BME280_pressure;Samples;Min_cycle;Max_cycle;Signal;HPM_P1;HPM_P2
2021/04/13 00:01:26;;;;;;;6.53;4.58;;;;;;;4.21;68.47;100835.54;147613;1147;105660;-69
2021/04/13 00:04:29;;;;;;;6.23;4.37;;;;;;;4.27;68.75;100842.23;147713;1148;104547;-73
2021/04/13 00:07:33;;;;;;;5.50;4.10;;;;;;;4.26;68.69;100843.19;147412;1147;104458;-71
2021/04/13 00:10:43;;;;;;;5.10;3.73;;;;;;;4.17;68.11;100830.56;147540;1147;104445;-72
2021/04/13 00:13:46;;;;;;;5.83;4.03;;;;;;;4.08;68.89;100838.13;147491;1147;104511;-70
2021/04/13 00:16:50;;;;;;;6.78;4.50;;;;;;;4.03;68.15;100845.48;147572;1147;104545;-70
2021/04/13 00:20:07;;;;;;;6.60;4.62;;;;;;;4.05;67.19;100840.12;147686;1147;104542;-71
2021/04/13 00:23:11;;;;;;;7.08;4.80;;;;;;;4.07;67.70;100846.98;147656;1147;104475;-73
2021/04/13 00:26:22;;;;;;;4.87;4.08;;;;;;;4.10;68.30;100836.24;147480;1147;104598;-73
2021/04/13 00:29:31;;;;;;;6.72;5.17;;;;;;;4.13;67.50;100832.55;147292;1147;104464;-71
2021/04/13 00:32:36;;;;;;;7.33;5.67;;;;;;;4.16;67.22;100813.00;147225;1147;104609;-70
2021/04/13 00:35:44;;;;;;;7.62;5.85;;;;;;;4.16;67.87;100820.93;147466;1147;104566;-70
2021/04/13 00:38:49;;;;;;;7.47;5.75;;;;;;;4.12;67.43;100821.14;147571;1147;104556;-71
2021/04/13 00:41:55;;;;;;;6.85;5.00;;;;;;;4.01;68.66;100830.70;147589;1146;104543;-70
2021/04/13 00:45:04;;;;;;;7.03;5.12;;;;;;;3.92;68.26;100832.11;147655;1147;104951;-72
2021/04/13 00:48:10;;;;;;;7.72;5.72;;;;;;;3.92;68.25;100830.31;147738;1147;104617;-70
2021/04/13 00:51:25;;;;;;;6.00;4.67;;;;;;;3.95;67.91;100833.73;147688;1147;104630;-73
2021/04/13 00:54:32;;;;;;;6.85;4.42;;;;;;;4.00;67.66;100847.47;147694;1147;104556;-71
2021/04/13 00:57:41;;;;;;;6.00;4.37;;;;;;;4.04;67.17;100851.61;147631;1147;104546;-68
2021/04/13 01:00:49;;;;;;;7.83;4.90;;;;;;;4.07;67.19;100854.91;147669;1148;104591;-67
2021/04/13 01:04:01;;;;;;;6.70;4.53;;;;;;;4.05;66.65;100854.16;147667;1147;104602;-69
2021/04/13 01:07:12;;;;;;;5.70;4.35;;;;;;;4.03;67.86;100868.41;147630;1147;104494;-68
2021/04/13 01:10:19;;;;;;;5.78;4.50;;;;;;;3.96;67.93;100873.21;147154;1147;104471;-69
2021/04/13 01:13:34;;;;;;;5.70;4.40;;;;;;;3.90;68.23;100861.23;147226;1147;104467;-68
2021/04/13 01:16:41;;;;;;;7.40;5.05;;;;;;;3.88;67.56;100847.29;147616;1148;104550;-71
2021/04/13 01:19:53;;;;;;;6.28;4.37;;;;;;;3.90;68.24;100852.48;147627;1147;104630;-69
2021/04/13 01:23:02;;;;;;;4.67;3.87;;;;;;;3.89;69.12;100849.00;147599;1147;104551;-69
2021/04/13 01:26:07;;;;;;;6.65;4.65;;;;;;;3.86;69.11;100845.70;147715;1147;104521;-71
2021/04/13 01:29:11;;;;;;;5.83;3.95;;;;;;;3.86;68.75;100854.45;147642;1147;104537;-69
2021/04/13 01:32:16;;;;;;;4.90;3.95;;;;;;;3.73;70.21;100838.55;147633;1147;104661;-67
2021/04/13 01:35:30;;;;;;;5.42;4.05;;;;;;;3.63;70.00;100823.36;147597;1148;104712;-68
2021/04/13 01:38:40;;;;;;;6.40;4.45;;;;;;;3.60;69.64;100823.54;147665;1148;104544;-70
2021/04/13 01:41:57;;;;;;;6.40;4.22;;;;;;;3.52;70.15;100822.24;147600;1148;104904;-68
2021/04/13 01:45:04;;;;;;;6.03;4.10;;;;;;;3.49;71.69;100803.95;147653;1147;104470;-68
2021/04/13 01:48:11;;;;;;;5.80;3.87;;;;;;;3.50;71.55;100808.30;147331;1147;104470;-69
2021/04/13 01:51:14;;;;;;;5.87;4.50;;;;;;;3.47;71.91;100826.94;147475;1147;104636;-72
2021/04/13 01:54:19;;;;;;;7.03;4.55;;;;;;;3.41;72.11;100839.67;147711;1147;104546;-71
2021/04/13 01:57:34;;;;;;;9.28;4.72;;;;;;;3.36;72.95;100837.29;147760;1147;104470;-70
2021/04/13 02:00:47;;;;;;;6.00;4.03;;;;;;;3.30;72.84;100853.49;147724;1147;104633;-70
2021/04/13 02:04:00;;;;;;;5.67;3.60;;;;;;;3.21;73.38;100864.58;147599;1147;104809;-71
2021/04/13 02:07:17;;;;;;;5.60;3.70;;;;;;;3.13;74.24;100857.97;147706;1147;104605;-72
2021/04/13 02:10:27;;;;;;;5.33;3.80;;;;;;;3.17;71.67;100841.97;147747;1146;104551;-71
2021/04/13 02:13:35;;;;;;;5.45;3.67;;;;;;;3.16;72.25;100843.77;147758;1148;104550;-72
2021/04/13 02:16:47;;;;;;;5.27;3.73;;;;;;;3.18;73.23;100838.41;147773;1147;104462;-74
2021/04/13 02:19:52;;;;;;;8.13;4.55;;;;;;;3.01;74.23;100848.15;147781;1147;104492;-71
2021/04/13 02:22:56;;;;;;;7.07;4.30;;;;;;;2.88;74.42;100848.00;147611;1148;104642;-70
2021/04/13 02:26:05;;;;;;;7.65;4.50;;;;;;;2.88;75.31;100834.83;147425;1147;104889;-70
2021/04/13 02:29:09;;;;;;;6.00;4.27;;;;;;;2.90;74.11;100851.40;147537;1147;104543;-72
2021/04/13 02:32:18;;;;;;;6.75;4.22;;;;;;;2.90;74.35;100856.67;147728;1146;104912;-70
2021/04/13 02:35:24;;;;;;;6.23;4.40;;;;;;;2.88;74.77;100857.71;147696;1148;104548;-71
2021/04/13 02:38:31;;;;;;;6.37;4.33;;;;;;;2.82;73.49;100852.80;147803;1146;104685;-70
2021/04/13 02:41:40;;;;;;;5.53;4.03;;;;;;;2.68;76.24;100858.87;147333;1148;104552;-74
2021/04/13 02:44:53;;;;;;;5.95;3.40;;;;;;;2.64;76.68;100855.55;147703;1147;104467;-73
2021/04/13 02:48:03;;;;;;;5.47;3.30;;;;;;;2.68;75.54;100850.96;147654;1148;104401;-72
2021/04/13 02:51:11;;;;;;;5.63;3.47;;;;;;;2.70;75.25;100857.83;147674;1147;104538;-70
2021/04/13 02:54:19;;;;;;;6.53;3.77;;;;;;;2.68;76.13;100859.70;147643;1147;104508;-72
2021/04/13 02:57:25;;;;;;;8.20;3.52;;;;;;;2.66;74.97;100858.95;147608;1148;104547;-69
2021/04/13 03:00:34;;;;;;;6.70;3.92;;;;;;;2.61;76.10;100855.72;147654;1147;106016;-66
2021/04/13 03:03:40;;;;;;;6.80;3.52;;;;;;;2.60;74.63;100858.43;147547;1147;104560;-70
2021/04/13 03:06:48;;;;;;;7.13;3.40;;;;;;;2.65;75.67;100865.14;147345;1147;104466;-67
2021/04/13 03:09:55;;;;;;;4.62;2.90;;;;;;;2.59;74.72;100869.92;147556;1147;104639;-71
2021/04/13 03:13:00;;;;;;;6.78;3.90;;;;;;;2.54;75.99;100871.03;147268;1147;104559;-68
2021/04/13 03:16:06;;;;;;;6.80;3.90;;;;;;;2.44;77.14;100879.52;147432;1147;104580;-68
2021/04/13 03:19:12;;;;;;;5.00;3.20;;;;;;;2.37;75.41;100894.84;147613;1147;104478;-71
2021/04/13 03:22:18;;;;;;;6.35;2.80;;;;;;;2.31;75.63;100896.02;147700;1147;104468;-70
2021/04/13 03:25:25;;;;;;;12.80;6.65;;;;;;;2.24;77.05;100889.38;147707;1147;104601;-74
2021/04/13 03:28:36;;;;;;;5.97;3.37;;;;;;;2.23;75.96;100902.63;147680;1146;104477;-66
2021/04/13 03:31:41;;;;;;;8.10;4.00;;;;;;;2.17;75.79;100882.74;147645;1147;104448;-67
2021/04/13 03:34:45;;;;;;;5.07;2.37;;;;;;;2.13;76.42;100897.85;147598;1148;104809;-68
2021/04/13 03:37:49;;;;;;;14.25;7.17;;;;;;;2.06;75.63;100907.03;147677;1148;104473;-67
2021/04/13 03:40:54;;;;;;;6.95;3.75;;;;;;;2.08;76.10;100907.80;147652;1147;104857;-74
2021/04/13 03:44:01;;;;;;;7.28;3.58;;;;;;;2.07;75.21;100913.14;147681;1146;104657;-70
2021/04/13 03:47:11;;;;;;;12.43;6.15;;;;;;;2.03;76.72;100916.88;147706;1147;104477;-73
2021/04/13 03:50:22;;;;;;;9.77;5.70;;;;;;;1.96;76.62;100924.23;147308;1147;104406;-71
2021/04/13 03:53:34;;;;;;;13.43;7.92;;;;;;;1.93;76.40;100919.98;147696;1146;104953;-73
2021/04/13 03:56:41;;;;;;;12.30;7.70;;;;;;;1.91;76.18;100928.91;147777;1147;104579;-71
2021/04/13 03:59:56;;;;;;;6.70;3.20;;;;;;;1.94;75.77;100931.36;147795;1147;104522;-72
2021/04/13 04:03:00;;;;;;;6.10;3.35;;;;;;;1.96;76.74;100934.76;147645;1147;104913;-71
2021/04/13 04:06:04;;;;;;;4.92;3.00;;;;;;;1.95;76.29;100941.81;147751;1147;104480;-73
2021/04/13 04:09:16;;;;;;;16.70;9.80;;;;;;;1.92;75.30;100935.86;147720;1147;104546;-73
2021/04/13 04:12:22;;;;;;;;;;;;;;;1.94;75.21;100941.89;147696;1147;104506;-71
2021/04/13 04:15:29;;;;;;;4.08;2.27;;;;;;;1.84;76.69;100956.47;147786;1147;104544;-70
2021/04/13 04:18:37;;;;;;;5.35;2.90;;;;;;;1.83;76.19;100960.89;147668;1147;104454;-71
2021/04/13 04:21:41;;;;;;;5.83;2.70;;;;;;;1.88;76.32;100952.73;147633;1147;104535;-69
2021/04/13 04:24:45;;;;;;;6.35;3.37;;;;;;;1.90;76.18;100959.61;147706;1147;104943;-70
2021/04/13 04:27:53;;;;;;;6.67;3.90;;;;;;;1.87;76.19;100965.05;147323;1147;104699;-69
2021/04/13 04:31:39;;;;;;;3.87;2.25;;;;;;;1.83;76.44;100966.16;147676;1147;104595;-71
2021/04/13 04:34:50;;;;;;;3.67;2.55;;;;;;;1.75;76.26;100976.20;147499;1147;104838;-70
2021/04/13 04:38:07;;;;;;;4.15;2.10;;;;;;;1.70;75.06;100973.81;147623;1147;104580;-70
2021/04/13 04:41:12;;;;;;;8.98;5.80;;;;;;;1.67;75.90;100962.59;147648;1147;104960;-68
2021/04/13 04:44:22;;;;;;;4.55;2.47;;;;;;;1.70;75.17;100954.56;147650;1147;104629;-70
2021/04/13 04:47:37;;;;;;;5.57;3.00;;;;;;;1.67;76.62;100944.17;147628;1147;104546;-68
2021/04/13 04:50:40;;;;;;;5.30;2.92;;;;;;;1.62;76.61;100944.42;148002;1147;104406;-70
2021/04/13 04:53:46;;;;;;;6.35;4.42;;;;;;;1.62;75.97;100947.06;147605;1147;104892;-71
2021/04/13 04:56:49;;;;;;;5.63;2.90;;;;;;;1.61;77.34;100945.34;147497;1147;104487;-72
2021/04/13 04:59:53;;;;;;;6.47;3.90;;;;;;;1.65;76.76;100944.25;147652;1147;104653;-68
2021/04/13 05:02:56;;;;;;;5.87;3.17;;;;;;;1.71;75.93;100940.45;147474;1148;104499;-69
2021/04/13 05:05:59;;;;;;;7.00;4.22;;;;;;;1.75;76.68;100955.15;147373;1147;104535;-73
2021/04/13 05:09:03;;;;;;;10.27;5.57;;;;;;;1.79;76.36;100951.45;147555;1147;104488;-72
2021/04/13 05:12:08;;;;;;;10.08;5.80;;;;;;;1.83;77.04;100960.89;147535;1147;104460;-71
2021/04/13 05:15:13;;;;;;;12.53;7.58;;;;;;;1.87;76.01;100959.80;147788;1147;104615;-69
2021/04/13 05:18:17;;;;;;;12.80;7.10;;;;;;;1.91;77.10;100966.59;147678;1148;104525;-75
2021/04/13 05:21:21;;;;;;;10.30;5.05;;;;;;;1.99;77.55;100968.83;147647;1147;104535;-70
2021/04/13 05:24:24;;;;;;;11.38;6.17;;;;;;;2.04;76.55;100965.94;147632;1147;104593;-69
2021/04/13 05:27:27;;;;;;;9.15;6.22;;;;;;;2.09;77.65;100971.82;147637;1147;104460;-72
2021/04/13 05:30:31;;;;;;;12.67;7.67;;;;;;;2.11;76.83;100962.06;147636;1147;104709;-71
2021/04/13 05:33:34;;;;;;;10.78;6.87;;;;;;;2.12;77.51;100966.41;147767;1147;104486;-69
2021/04/13 05:36:38;;;;;;;10.43;6.95;;;;;;;2.16;77.02;100973.20;147556;1146;104458;-69
2021/04/13 05:39:41;;;;;;;11.38;6.75;;;;;;;2.24;76.60;100976.27;147351;1147;104923;-67
2021/04/13 05:42:45;;;;;;;13.38;8.05;;;;;;;2.28;76.84;100977.81;147222;1147;104594;-71
2021/04/13 05:45:49;;;;;;;11.88;7.72;;;;;;;2.37;75.83;100987.02;147597;1148;104654;-70
2021/04/13 05:48:53;;;;;;;13.95;8.13;;;;;;;2.38;76.04;100987.86;147654;1147;104527;-71
2021/04/13 05:51:56;;;;;;;12.85;8.05;;;;;;;2.40;76.73;100988.63;147606;1147;104510;-70
2021/04/13 05:54:59;;;;;;;14.10;8.70;;;;;;;2.43;76.19;100986.67;147551;1148;104499;-68
2021/04/13 05:58:08;;;;;;;11.80;8.68;;;;;;;2.48;76.08;100996.95;147644;1148;104598;-72
2021/04/13 06:01:12;;;;;;;14.97;9.80;;;;;;;2.52;77.17;101001.98;147466;1147;104528;-68
2021/04/13 06:04:16;;;;;;;15.45;10.85;;;;;;;2.51;77.75;101009.97;147226;1147;104532;-74
2021/04/13 06:07:20;;;;;;;15.88;11.63;;;;;;;2.43;76.12;101001.64;147766;1147;104521;-66
2021/04/13 06:10:23;;;;;;;17.45;11.63;;;;;;;2.40;79.49;101014.95;147715;1147;104547;-68
2021/04/13 06:13:28;;;;;;;17.67;10.88;;;;;;;2.42;76.56;101013.09;147638;1147;104892;-72
2021/04/13 06:16:35;;;;;;;13.05;8.68;;;;;;;2.40;77.49;101021.07;147651;1147;104550;-68
2021/04/13 06:19:38;;;;;;;13.90;9.30;;;;;;;2.34;77.12;101016.97;147628;1147;104483;-67
2021/04/13 06:22:41;;;;;;;14.07;8.95;;;;;;;2.36;77.22;101024.80;147664;1148;104550;-70
2021/04/13 06:25:45;;;;;;;14.03;9.07;;;;;;;2.33;78.59;101020.56;147619;1148;104471;-69
2021/04/13 06:28:48;;;;;;;10.40;6.65;;;;;;;2.24;78.63;101036.84;147688;1147;104896;-67
2021/04/13 06:31:51;;;;;;;10.95;6.92;;;;;;;2.23;77.33;101029.02;147635;1147;104615;-66
2021/04/13 06:34:54;;;;;;;9.23;5.43;;;;;;;2.27;77.14;101036.69;147339;1147;104620;-66
2021/04/13 06:38:00;;;;;;;8.55;4.95;;;;;;;2.36;76.81;101045.88;147100;1147;104921;-69
2021/04/13 06:41:20;;;;;;;7.55;4.58;;;;;;;2.32;78.59;101044.34;147632;1146;105471;-67
2021/04/13 06:44:45;;;;;;;10.43;5.87;;;;;;;2.30;78.82;101044.41;147640;1147;104805;-66
2021/04/13 06:48:13;;;;;;;13.75;8.08;;;;;;;2.37;77.45;101050.22;147530;1147;104632;-65
2021/04/13 06:51:25;;;;;;;6.45;3.75;;;;;;;2.45;76.76;101055.09;147403;1147;104490;-65
2021/04/13 06:54:40;;;;;;;6.35;2.90;;;;;;;2.53;78.10;101048.46;147648;1147;104476;-69
2021/04/13 06:58:15;;;;;;;6.08;3.37;;;;;;;2.56;78.27;101050.10;147577;1146;104570;-70
2021/04/13 07:01:28;;;;;;;26.80;15.53;;;;;;;2.63;76.29;101053.24;147639;1146;104480;-67
2021/04/13 07:04:38;;;;;;;48.00;28.20;;;;;;;2.59;77.05;101060.45;147617;1148;104550;-67
2021/04/13 07:07:51;;;;;;;7.58;3.92;;;;;;;2.60;77.16;101066.56;147555;1147;104480;-67
2021/04/13 07:11:02;;;;;;;7.42;4.78;;;;;;;2.65;77.20;101059.28;147600;1147;104515;-67
2021/04/13 07:14:11;;;;;;;5.17;3.07;;;;;;;2.69;76.63;101066.08;147185;1147;104565;-68
2021/04/13 07:17:21;;;;;;;11.50;8.00;;;;;;;2.81;76.06;101077.74;147540;1147;104519;-68
2021/04/13 07:20:29;;;;;;;4.45;3.05;;;;;;;2.82;76.89;101074.19;147616;1147;104602;-72
2021/04/13 07:23:36;;;;;;;6.80;3.27;;;;;;;2.87;77.35;101077.44;147618;1146;104990;-67
2021/04/13 07:26:43;;;;;;;4.87;2.90;;;;;;;2.90;76.83;101077.25;149532;1146;104550;-65
2021/04/13 07:29:48;;;;;;;7.00;3.62;;;;;;;2.95;76.11;101081.34;147340;1147;104446;-66
2021/04/13 07:32:55;;;;;;;4.80;2.67;;;;;;;3.10;76.64;101087.56;147570;1146;104787;-65
2021/04/13 07:36:01;;;;;;;6.72;4.05;;;;;;;3.24;75.28;101084.16;147434;1147;104542;-65
2021/04/13 07:39:07;;;;;;;32.87;20.43;;;;;;;3.36;74.90;101085.25;147711;1147;104503;-65
2021/04/13 07:42:19;;;;;;;14.23;8.00;;;;;;;3.47;75.08;101087.30;147704;1147;104553;-65
2021/04/13 07:45:29;;;;;;;;;;;;;;;3.49;75.78;101086.27;147678;1147;104548;-65
2021/04/13 07:48:55;;;;;;;14.53;9.30;;;;;;;3.48;75.50;101088.98;147570;1147;104849;-65
2021/04/13 07:52:05;;;;;;;10.50;6.07;;;;;;;3.53;76.28;101098.34;147582;1147;104613;-65
2021/04/13 07:55:18;;;;;;;6.83;4.37;;;;;;;3.51;74.97;101094.94;147645;1147;104532;-65
2021/04/13 07:58:41;;;;;;;8.70;5.35;;;;;;;3.52;75.16;101106.34;147827;1146;104531;-66
2021/04/13 08:01:45;;;;;;;5.62;3.37;;;;;;;3.41;75.63;101106.12;147295;1147;104492;-67
2021/04/13 08:04:51;;;;;;;6.97;3.35;;;;;;;3.38;76.39;101106.28;147610;1148;104569;-69
2021/04/13 08:08:06;;;;;;;4.17;2.83;;;;;;;3.49;76.56;101099.45;147506;1147;104581;-67
2021/04/13 08:11:13;;;;;;;4.30;3.00;;;;;;;3.70;75.22;101105.30;147621;1147;104494;-68
2021/04/13 08:14:19;;;;;;;8.58;4.42;;;;;;;3.78;76.11;101107.50;147590;1146;104648;-65
2021/04/13 08:17:24;;;;;;;6.22;3.65;;;;;;;3.86;74.64;101105.27;147380;1147;104458;-67
2021/04/13 08:20:31;;;;;;;8.38;5.55;;;;;;;3.89;74.89;101113.02;147625;1147;104455;-67
2021/04/13 08:27:53;;;;;;;10.00;6.90;;;;;;;3.83;75.92;101108.09;147632;1147;104510;-68
2021/04/13 08:34:49;;;;;;;10.80;7.83;;;;;;;4.04;75.00;101123.61;147597;1147;104494;-70
2021/04/13 08:37:57;;;;;;;10.55;7.95;;;;;;;4.17;75.08;101119.31;147514;1146;104652;-69
2021/04/13 08:41:22;;;;;;;12.50;8.68;;;;;;;4.19;74.97;101114.78;147415;1147;104825;-70
2021/04/13 08:44:35;;;;;;;18.45;13.43;;;;;;;4.24;74.21;101123.30;147697;1147;104490;-68
2021/04/13 08:47:44;;;;;;;11.48;9.30;;;;;;;4.18;75.17;101115.74;147110;1147;104489;-68
2021/04/13 08:50:49;;;;;;;15.60;10.48;;;;;;;4.25;75.21;101117.09;147609;1147;104426;-67
2021/04/13 08:54:07;;;;;;;10.93;7.28;;;;;;;4.31;74.18;101110.56;147406;1147;104476;-69
2021/04/13 08:57:31;;;;;;;11.25;7.72;;;;;;;4.35;74.83;101108.59;147178;1147;104610;-67
2021/04/13 09:00:45;;;;;;;13.15;10.32;;;;;;;4.50;74.45;101105.02;147681;1146;104623;-67
2021/04/13 09:03:49;;;;;;;11.37;8.47;;;;;;;4.62;74.62;101106.94;147683;1147;104545;-67
2021/04/13 09:06:56;;;;;;;11.63;8.53;;;;;;;4.73;74.29;101103.62;147599;1147;104527;-68
2021/04/13 09:10:25;;;;;;;11.73;7.87;;;;;;;4.98;74.36;101100.30;147643;1147;104473;-67
2021/04/13 09:13:33;;;;;;;9.73;6.20;;;;;;;5.04;72.87;101092.00;147594;1147;104617;-65
2021/04/13 09:16:39;;;;;;;9.63;6.87;;;;;;;5.11;73.44;101093.28;147633;1147;104469;-68
2021/04/13 09:19:53;;;;;;;20.15;10.98;;;;;;;5.30;73.23;101090.32;147607;1146;104455;-68
2021/04/13 09:23:08;;;;;;;14.23;7.95;;;;;;;5.40;72.37;101095.87;147579;1147;104540;-68
2021/04/13 09:26:23;;;;;;;9.80;6.45;;;;;;;5.38;72.59;101092.47;147634;1148;104547;-70
2021/04/13 09:29:41;;;;;;;24.50;13.10;;;;;;;5.60;72.71;101086.65;147608;1147;104549;-70
2021/04/13 09:32:46;;;;;;;10.15;6.25;;;;;;;5.73;72.54;101085.83;148243;1146;104472;-66
2021/04/13 09:36:22;;;;;;;18.05;9.50;;;;;;;5.81;71.85;101089.69;147285;1146;104450;-66
2021/04/13 09:39:42;;;;;;;8.25;5.40;;;;;;;5.89;72.34;101081.23;147998;1146;104551;-70
2021/04/13 09:43:23;;;;;;;9.08;5.75;;;;;;;6.08;71.36;101080.84;147389;1147;104472;-66
2021/04/13 09:46:43;;;;;;;9.68;6.83;;;;;;;6.37;72.05;101065.62;147509;1147;104538;-68
2021/04/13 09:50:02;;;;;;;9.18;5.42;;;;;;;6.69;70.16;101071.31;147729;1147;104543;-67
2021/04/13 09:53:24;;;;;;;7.20;5.10;;;;;;;6.88;69.85;101062.06;147656;1148;104482;-67
2021/04/13 09:56:42;;;;;;;6.60;5.15;;;;;;;7.05;70.35;101060.86;147694;1147;104472;-66
2021/04/13 10:00:15;;;;;;;7.08;5.20;;;;;;;7.47;69.69;101056.88;147671;1147;104534;-66
2021/04/13 10:03:55;;;;;;;5.53;4.60;;;;;;;7.67;69.25;101059.86;147697;1146;104593;-66
2021/04/13 10:07:04;;;;;;;5.83;4.58;;;;;;;7.49;68.23;101059.42;147557;1147;104478;-69
2021/04/13 10:10:21;;;;;;;6.30;3.98;;;;;;;7.54;68.49;101062.56;147627;1147;104476;-67
2021/04/13 10:14:08;;;;;;;5.70;4.35;;;;;;;7.60;69.39;101056.83;147384;1147;104467;-65
2021/04/13 10:17:27;;;;;;;5.37;3.98;;;;;;;7.70;65.95;101059.64;147610;1146;104493;-70
2021/04/13 10:20:45;;;;;;;7.17;4.05;;;;;;;7.63;66.46;101051.27;147618;1148;104522;-67
2021/04/13 10:24:22;;;;;;;7.50;4.30;;;;;;;7.81;66.12;101057.03;147782;1147;104627;-70
2021/04/13 10:28:10;;;;;;;6.30;4.17;;;;;;;7.97;66.39;101059.37;147678;1147;104436;-68
2021/04/13 10:31:43;;;;;;;10.43;7.23;;;;;;;8.16;65.50;101056.16;147603;1147;104445;-69
2021/04/13 10:35:28;;;;;;;10.60;6.70;;;;;;;8.20;68.12;101049.63;147677;1148;104945;-67
2021/04/13 10:39:07;;;;;;;17.60;11.13;;;;;;;8.04;63.77;101049.97;147567;1147;104596;-67
2021/04/13 10:42:44;;;;;;;9.90;6.25;;;;;;;7.71;63.75;101047.20;147575;1147;104588;-68
2021/04/13 10:46:15;;;;;;;11.90;7.83;;;;;;;7.51;64.75;101049.53;147562;1147;104506;-67
2021/04/13 10:49:58;;;;;;;14.58;8.25;;;;;;;7.70;64.69;101046.36;147709;1148;104479;-67
2021/04/13 10:53:20;;;;;;;44.45;35.63;;;;;;;7.73;64.95;101029.33;147300;1146;104457;-68
2021/04/13 10:56:31;;;;;;;;;;;;;;;8.07;64.59;101038.25;147805;1146;104594;-69
2021/04/13 11:00:18;;;;;;;21.42;16.95;;;;;;;8.09;63.00;101033.66;147879;1146;104549;-72
2021/04/13 11:04:05;;;;;;;17.00;13.83;;;;;;;7.99;60.74;101035.34;147644;1147;104576;-67
2021/04/13 11:07:41;;;;;;;8.78;6.83;;;;;;;8.09;62.27;101020.37;147477;1148;104468;-69
2021/04/13 11:11:35;;;;;;;5.27;4.03;;;;;;;8.15;62.68;101032.34;147483;1147;104457;-74
2021/04/13 11:15:18;;;;;;;5.42;3.70;;;;;;;8.20;60.46;101027.52;146708;1151;104689;-71
2021/04/13 11:18:49;;;;;;;4.60;3.20;;;;;;;8.26;59.52;101024.38;146833;1147;105049;-69
2021/04/13 11:22:28;;;;;;;5.05;3.22;;;;;;;8.16;57.25;101036.67;147421;1146;104538;-69
2021/04/13 11:26:02;;;;;;;3.60;2.75;;;;;;;8.06;57.14;101031.22;147662;1147;105018;-69
2021/04/13 11:29:33;;;;;;;6.23;2.97;;;;;;;8.06;61.48;101028.56;147773;1148;104535;-72
2021/04/13 11:33:07;;;;;;;3.72;2.70;;;;;;;7.89;58.30;101029.01;147433;1147;104669;-70
2021/04/13 11:36:18;;;;;;;7.62;3.95;;;;;;;7.82;58.25;101024.17;148124;1147;104564;-69
2021/04/13 11:39:29;;;;;;;7.08;3.27;;;;;;;7.81;61.41;101038.43;147638;1148;104499;-73
2021/04/13 11:42:35;;;;;;;4.97;2.83;;;;;;;7.81;59.71;101037.56;147534;1147;104569;-70
2021/04/13 11:45:48;;;;;;;4.92;3.12;;;;;;;7.89;60.99;101023.70;147596;1147;104610;-72
2021/04/13 11:49:00;;;;;;;7.00;3.33;;;;;;;8.12;58.97;101028.12;147637;1148;104657;-70
2021/04/13 11:52:10;;;;;;;5.77;3.50;;;;;;;8.22;59.86;101031.75;147347;1147;104557;-68
2021/04/13 11:55:43;;;;;;;5.17;3.70;;;;;;;8.36;60.26;101025.35;147498;1147;104486;-69
2021/04/13 11:59:21;;;;;;;6.62;3.58;;;;;;;8.40;58.82;101023.30;147358;1146;104863;-74
2021/04/13 12:02:28;;;;;;;7.85;4.90;;;;;;;8.16;58.89;101028.70;147637;1147;104456;-68
2021/04/13 12:05:45;;;;;;;5.85;3.90;;;;;;;7.89;59.92;101023.70;147652;1147;104620;-71
2021/04/13 12:08:55;;;;;;;12.53;6.87;;;;;;;7.61;59.55;101021.31;148244;1146;104535;-71
2021/04/13 12:11:58;;;;;;;65.17;44.95;;;;;;;7.54;60.52;101019.23;147486;1147;104489;-70
2021/04/13 12:15:48;;;;;;;17.65;13.10;;;;;;;7.61;60.40;101015.17;147617;1146;104453;-69
2021/04/13 12:19:13;;;;;;;24.40;13.38;;;;;;;7.71;59.85;101013.50;147582;1147;104467;-69
2021/04/13 12:22:34;;;;;;;17.87;11.48;;;;;;;7.82;60.61;101002.08;147755;1147;104943;-69
2021/04/13 12:25:40;;;;;;;9.40;7.33;;;;;;;7.98;59.93;101009.71;147702;1146;104963;-69
2021/04/13 12:28:51;;;;;;;8.90;6.83;;;;;;;8.08;59.16;101008.03;148023;1146;104529;-69
2021/04/13 12:32:25;;;;;;;13.10;7.87;;;;;;;8.11;56.12;101002.48;147722;1146;104493;-69
2021/04/13 12:35:57;;;;;;;8.55;6.05;;;;;;;8.06;55.73;101004.64;147611;1147;104473;-71
2021/04/13 12:39:00;;;;;;;8.40;6.33;;;;;;;8.03;56.88;101002.23;147619;1146;104672;-69
2021/04/13 12:42:04;;;;;;;6.23;5.13;;;;;;;8.16;57.12;100997.67;147710;1146;104522;-69
2021/04/13 12:45:52;;;;;;;8.13;5.77;;;;;;;8.26;56.44;100990.66;147568;1147;104457;-71
2021/04/13 12:48:58;;;;;;;12.75;8.28;;;;;;;8.30;56.49;100985.11;147505;1148;104543;-70
2021/04/13 12:52:03;;;;;;;7.85;6.10;;;;;;;8.25;55.22;100996.93;147574;1147;104941;-72
2021/04/13 12:55:13;;;;;;;9.65;6.78;;;;;;;8.25;55.72;100988.11;147554;1147;104452;-74
2021/04/13 12:58:18;;;;;;;9.10;5.75;;;;;;;8.31;55.94;100981.47;147991;1147;104969;-70
2021/04/13 13:01:37;;;;;;;7.25;5.78;;;;;;;8.35;56.83;100973.16;147555;1146;104480;-72
2021/04/13 13:04:43;;;;;;;8.90;5.00;;;;;;;8.26;53.89;100982.69;147875;1145;104426;-72
2021/04/13 13:07:54;;;;;;;7.67;5.37;;;;;;;8.29;55.41;100978.92;147519;1147;104492;-72
2021/04/13 13:11:09;;;;;;;6.33;4.90;;;;;;;8.34;56.25;100975.92;147656;1147;104460;-68
2021/04/13 13:14:15;;;;;;;5.20;4.50;;;;;;;8.42;56.55;100974.37;147525;1147;104768;-72
2021/04/13 13:17:29;;;;;;;8.00;5.45;;;;;;;8.47;55.76;100970.49;147319;1147;104527;-71
2021/04/13 13:20:32;;;;;;;9.68;7.12;;;;;;;8.38;55.67;100969.39;147274;1147;104562;-69
2021/04/13 13:23:38;;;;;;;7.62;5.85;;;;;;;8.30;54.71;100974.48;147167;1146;104495;-67
2021/04/13 13:26:41;;;;;;;8.80;6.42;;;;;;;8.23;52.26;100976.76;147283;1147;104623;-68
2021/04/13 13:29:44;;;;;;;7.03;5.67;;;;;;;8.27;55.49;100967.56;147644;1147;104540;-71
2021/04/13 13:32:47;;;;;;;8.90;6.50;;;;;;;8.38;55.07;100962.25;147597;1148;104566;-71
2021/04/13 13:35:51;;;;;;;6.12;5.12;;;;;;;8.42;53.87;100971.70;147723;1146;104553;-72
2021/04/13 13:38:56;;;;;;;8.80;5.23;;;;;;;8.43;53.79;100964.60;147674;1146;104474;-67
2021/04/13 13:42:04;;;;;;;6.80;5.50;;;;;;;8.54;55.33;100958.41;147687;1146;104627;-70
2021/04/13 13:45:23;;;;;;;6.50;5.28;;;;;;;8.59;54.19;100951.75;147642;1147;104607;-69
2021/04/13 13:48:28;;;;;;;8.85;5.22;;;;;;;8.62;53.40;100950.65;147598;1147;104574;-71
2021/04/13 13:51:35;;;;;;;6.53;5.10;;;;;;;8.64;54.34;100941.59;148147;1146;104915;-70
2021/04/13 13:54:40;;;;;;;7.97;5.65;;;;;;;8.75;55.61;100942.53;147830;1147;104398;-70
2021/04/13 13:57:44;;;;;;;7.72;5.60;;;;;;;8.86;55.12;100933.69;147620;1147;104598;-71
2021/04/13 14:00:52;;;;;;;10.03;5.63;;;;;;;8.95;52.42;100943.55;147791;1146;104456;-72
2021/04/13 14:03:55;;;;;;;11.23;6.93;;;;;;;8.91;54.60;100939.46;147758;1146;104445;-73
2021/04/13 14:06:58;;;;;;;7.53;5.67;;;;;;;8.87;53.63;100936.20;147210;1147;104556;-70
2021/04/13 14:10:32;;;;;;;7.08;5.37;;;;;;;8.89;52.53;100931.63;147661;1147;104466;-71
2021/04/13 14:13:38;;;;;;;10.85;5.60;;;;;;;8.86;54.19;100923.88;147739;1147;104624;-70
2021/04/13 14:16:45;;;;;;;7.33;5.28;;;;;;;8.86;54.27;100921.22;147825;1147;104559;-71
2021/04/13 14:19:48;;;;;;;6.87;4.73;;;;;;;8.78;52.20;100923.67;147823;1146;104544;-67
2021/04/13 14:22:52;;;;;;;6.90;4.85;;;;;;;8.62;54.06;100919.59;147709;1147;105462;-67
2021/04/13 14:25:56;;;;;;;9.88;6.05;;;;;;;8.50;54.28;100917.91;147687;1146;104544;-66
2021/04/13 14:29:09;;;;;;;8.95;6.35;;;;;;;8.43;54.08;100917.56;147643;1146;104527;-68
2021/04/13 14:32:13;;;;;;;13.72;10.65;;;;;;;8.53;54.24;100911.52;147748;1147;104569;-67
2021/04/13 14:35:16;;;;;;;15.15;9.00;;;;;;;8.60;52.90;100899.38;147668;1147;104450;-69
2021/04/13 14:38:23;;;;;;;9.63;6.70;;;;;;;8.65;54.16;100897.20;147690;1147;104875;-69
2021/04/13 14:41:26;;;;;;;12.20;8.03;;;;;;;8.77;55.38;100903.34;147522;1147;104522;-70
2021/04/13 14:44:29;;;;;;;39.35;25.15;;;;;;;8.86;53.57;100894.61;147560;1147;104628;-69
2021/04/13 14:47:35;;;;;;;19.00;12.10;;;;;;;8.70;53.79;100883.52;147604;1147;104444;-71